createdAt,value
2022-10-21T00:01:52.545Z,2.48
2022-10-21T00:04:19.600Z,2.37
2022-10-21T00:06:46.912Z,2.39
2022-10-21T00:09:13.687Z,2.40
2022-10-21T00:11:40.703Z,2.36
2022-10-21T00:14:07.449Z,2.34
2022-10-21T00:16:34.122Z,2.30
2022-10-21T00:19:01.079Z,2.27
2022-10-21T00:21:27.767Z,2.26
2022-10-21T00:23:54.854Z,2.21
2022-10-21T00:26:22.163Z,2.17
2022-10-21T00:28:48.837Z,2.17
2022-10-21T00:31:16.250Z,2.13
2022-10-21T00:33:43.418Z,2.12
2022-10-21T00:36:15.251Z,2.07
2022-10-21T00:38:43.529Z,2.06
2022-10-21T00:41:10.794Z,2.02
2022-10-21T00:44:04.667Z,1.97
2022-10-21T00:46:42.218Z,1.91
2022-10-21T00:49:18.128Z,1.85
2022-10-21T00:51:50.039Z,1.79
2022-10-21T00:54:19.764Z,1.74
2022-10-21T00:56:48.394Z,1.73
2022-10-21T00:59:16.218Z,1.59
2022-10-21T01:01:43.187Z,1.58
2022-10-21T01:04:10.585Z,1.64
2022-10-21T01:06:37.731Z,1.61
2022-10-21T01:09:05.548Z,1.55
2022-10-21T01:11:40.583Z,1.55
2022-10-21T01:14:36.775Z,1.53
2022-10-21T01:17:26.573Z,1.51
2022-10-21T01:20:32.292Z,1.49
2022-10-21T01:23:20.288Z,1.46
2022-10-21T01:26:05.491Z,1.42
2022-10-21T01:28:47.790Z,1.40
2022-10-21T01:31:21.697Z,1.38
2022-10-21T01:34:09.278Z,1.28
2022-10-21T01:36:38.870Z,1.32
2022-10-21T01:39:31.855Z,1.30
2022-10-21T01:42:04.671Z,1.27
2022-10-21T01:45:01.294Z,1.25
2022-10-21T01:47:34.543Z,1.22
2022-10-21T01:50:15.230Z,1.18
2022-10-21T01:52:45.220Z,1.17
2022-10-21T01:55:18.065Z,1.16
2022-10-21T01:57:51.231Z,1.13
2022-10-21T02:00:19.226Z,1.12
2022-10-21T02:02:49.035Z,1.11
2022-10-21T02:05:27.409Z,1.09
2022-10-21T02:07:54.683Z,1.06
2022-10-21T02:10:25.645Z,1.05
2022-10-21T02:12:57.055Z,1.04
2022-10-21T02:15:25.673Z,1.01
2022-10-21T02:18:07.384Z,1.01
2022-10-21T02:20:39.880Z,0.99
2022-10-21T02:23:07.490Z,0.99
2022-10-21T02:25:38.584Z,0.97
2022-10-21T02:28:05.388Z,0.95
2022-10-21T02:30:40.661Z,0.86
2022-10-21T02:33:13.735Z,0.93
2022-10-21T02:35:54.303Z,0.82
2022-10-21T02:38:38.076Z,0.89
2022-10-21T02:41:09.457Z,0.88
2022-10-21T02:43:50.676Z,0.86
2022-10-21T02:46:17.658Z,0.86
2022-10-21T02:48:47.147Z,0.85
2022-10-21T02:51:14.492Z,0.84
2022-10-21T02:53:42.039Z,0.75
2022-10-21T02:56:09.330Z,0.81
2022-10-21T02:58:36.561Z,0.80
2022-10-21T03:01:03.243Z,0.81
2022-10-21T03:03:30.283Z,0.80
2022-10-21T03:05:57.691Z,0.70
2022-10-21T03:08:24.639Z,0.79
2022-10-21T03:10:53.523Z,0.76
2022-10-21T03:13:21.645Z,0.79
2022-10-21T03:15:51.384Z,0.76
2022-10-21T03:18:18.739Z,0.76
2022-10-21T03:20:49.898Z,0.74
2022-10-21T03:23:17.591Z,0.72
2022-10-21T03:25:44.730Z,0.63
2022-10-21T03:28:11.427Z,0.60
2022-10-21T03:30:38.262Z,0.69
2022-10-21T03:33:05.289Z,0.68
2022-10-21T03:35:32.005Z,0.70
2022-10-21T03:37:58.647Z,0.69
2022-10-21T03:40:29.976Z,0.69
2022-10-21T03:42:57.807Z,0.66
2022-10-21T03:45:24.922Z,0.64
2022-10-21T03:47:52.242Z,0.56
2022-10-21T03:50:23.575Z,0.55
2022-10-21T03:52:52.347Z,0.61
2022-10-21T03:55:20.951Z,0.51
2022-10-21T03:57:48.303Z,0.57
2022-10-21T04:00:16.177Z,0.47
2022-10-21T04:02:43.364Z,0.55
2022-10-21T04:05:10.491Z,0.54
2022-10-21T04:07:37.324Z,0.53
2022-10-21T04:10:05.789Z,0.46
2022-10-21T04:12:32.469Z,0.53
2022-10-21T04:14:59.126Z,0.51
2022-10-21T04:17:26.412Z,0.51
2022-10-21T04:19:53.023Z,0.51
2022-10-21T04:22:19.778Z,0.50
2022-10-21T04:24:46.767Z,0.50
2022-10-21T04:27:13.377Z,0.50
2022-10-21T04:29:40.026Z,0.46
2022-10-21T04:32:06.974Z,0.48
2022-10-21T04:34:33.582Z,0.52
2022-10-21T04:37:04.029Z,0.56
2022-10-21T04:39:32.339Z,0.57
2022-10-21T04:41:59.081Z,0.59
2022-10-21T04:44:25.756Z,0.59
2022-10-21T04:46:52.742Z,0.59
2022-10-21T04:49:19.565Z,0.65
2022-10-21T04:51:46.305Z,0.68
2022-10-21T04:54:13.662Z,0.75
2022-10-21T04:56:41.178Z,0.81
2022-10-21T04:59:08.029Z,0.78
2022-10-21T05:01:35.220Z,0.84
2022-10-21T05:04:01.907Z,1.00
2022-10-21T05:06:28.717Z,1.06
2022-10-21T05:08:55.886Z,1.08
2022-10-21T05:11:22.660Z,1.15
2022-10-21T05:13:49.332Z,1.19
2022-10-21T05:16:16.332Z,1.23
2022-10-21T05:18:43.082Z,1.30
2022-10-21T05:21:09.779Z,1.36
2022-10-21T05:23:36.670Z,1.42
2022-10-21T05:26:03.318Z,1.45
2022-10-21T05:28:29.967Z,1.45
2022-10-21T05:30:56.942Z,1.57
2022-10-21T05:33:23.610Z,1.59
2022-10-21T05:35:58.412Z,1.64
2022-10-21T05:38:25.309Z,1.65
2022-10-21T05:40:52.064Z,1.67
2022-10-21T05:43:18.682Z,1.63
2022-10-21T05:45:45.579Z,1.76
2022-10-21T05:48:17.131Z,1.76
2022-10-21T05:50:46.370Z,1.89
2022-10-21T05:53:14.026Z,1.97
2022-10-21T05:55:40.674Z,2.03
2022-10-21T05:58:07.998Z,2.07
2022-10-21T06:00:35.024Z,2.05
2022-10-21T06:03:02.052Z,2.17
2022-10-21T06:05:28.940Z,2.25
2022-10-21T06:07:55.631Z,2.32
2022-10-21T06:10:26.676Z,2.36
2022-10-21T06:12:55.790Z,2.41
2022-10-21T06:15:22.669Z,2.48
2022-10-21T06:17:49.332Z,2.57
2022-10-21T06:20:16.243Z,2.54
2022-10-21T06:22:43.188Z,2.72
2022-10-21T06:25:09.991Z,2.79
2022-10-21T06:27:36.900Z,2.75
2022-10-21T06:30:04.578Z,2.94
2022-10-21T06:32:31.588Z,3.00
2022-10-21T06:34:58.540Z,2.95
2022-10-21T06:37:25.460Z,3.04
